» Metar & Tafor

30 November 2018
METAR
Pukul : 05.00 UTC
Isi :

METAR WAGI 160500Z 18009KT 9999 BKN011 28/25 Q1012 NOSIG=


30 Agustus 2018
TAFOR
Pukul : 00 - 12 UTC
Isi :

TAF WAGI 152300Z 16000/1612 33004KT 9000 SCT012 TEMPO 1606/1610 23006KT 3000 TSRA FEW010CB BKN011=


Hal: << First | < Prev | 1 | Next > | Last >>